sensor_id;sensor_type;location;lat;lon;timestamp;pressure;altitude;pressure_sealevel;temperature;humidity
22743;BME280;11538;48.884;8.696;2022-08-01T00:00:47;98777.88;;;22.34;52.43
22743;BME280;11538;48.884;8.696;2022-08-01T00:03:14;98777.53;;;22.40;52.21
22743;BME280;11538;48.884;8.696;2022-08-01T00:05:41;98779.19;;;22.44;52.00
22743;BME280;11538;48.884;8.696;2022-08-01T00:08:10;98772.06;;;22.43;52.36
22743;BME280;11538;48.884;8.696;2022-08-01T00:10:37;98783.34;;;22.27;52.53
22743;BME280;11538;48.884;8.696;2022-08-01T00:13:04;98780.22;;;22.29;52.54
22743;BME280;11538;48.884;8.696;2022-08-01T00:15:31;98781.47;;;22.35;52.36
22743;BME280;11538;48.884;8.696;2022-08-01T00:17:59;98773.94;;;22.35;52.38
22743;BME280;11538;48.884;8.696;2022-08-01T00:20:26;98783.75;;;22.29;52.65
22743;BME280;11538;48.884;8.696;2022-08-01T00:22:53;98782.50;;;22.23;52.83
22743;BME280;11538;48.884;8.696;2022-08-01T00:25:20;98783.72;;;22.26;52.84
22743;BME280;11538;48.884;8.696;2022-08-01T00:27:59;98781.41;;;22.31;52.63
22743;BME280;11538;48.884;8.696;2022-08-01T00:30:26;98787.69;;;22.28;52.63
22743;BME280;11538;48.884;8.696;2022-08-01T00:32:53;98792.38;;;22.24;52.95
22743;BME280;11538;48.884;8.696;2022-08-01T00:35:20;98783.72;;;22.26;53.15
22743;BME280;11538;48.884;8.696;2022-08-01T00:37:47;98790.88;;;22.30;52.71
22743;BME280;11538;48.884;8.696;2022-08-01T00:40:14;98791.69;;;22.34;52.77
22743;BME280;11538;48.884;8.696;2022-08-01T00:42:41;98788.56;;;22.36;52.94
22743;BME280;11538;48.884;8.696;2022-08-01T00:45:11;98790.16;;;22.37;52.99
22743;BME280;11538;48.884;8.696;2022-08-01T00:47:38;98790.19;;;22.41;52.96
22743;BME280;11538;48.884;8.696;2022-08-01T00:50:07;98791.03;;;22.45;53.40
22743;BME280;11538;48.884;8.696;2022-08-01T00:52:34;98794.88;;;22.37;53.20
22743;BME280;11538;48.884;8.696;2022-08-01T00:55:03;98788.91;;;22.31;53.53
22743;BME280;11538;48.884;8.696;2022-08-01T00:57:30;98787.69;;;22.28;53.63
22743;BME280;11538;48.884;8.696;2022-08-01T01:00:17;98795.97;;;22.28;53.77
22743;BME280;11538;48.884;8.696;2022-08-01T01:02:53;98789.25;;;22.26;53.77
22743;BME280;11538;48.884;8.696;2022-08-01T01:05:20;98787.28;;;22.26;54.20
22743;BME280;11538;48.884;8.696;2022-08-01T01:07:59;98787.63;;;22.21;54.53
22743;BME280;11538;48.884;8.696;2022-08-01T01:10:40;98788.38;;;22.18;54.46
22743;BME280;11538;48.884;8.696;2022-08-01T01:13:19;98789.13;;;22.15;54.57
22743;BME280;11538;48.884;8.696;2022-08-01T01:16:01;98784.69;;;22.06;54.69
22743;BME280;11538;48.884;8.696;2022-08-01T01:18:44;98795.81;;;22.10;54.78
22743;BME280;11538;48.884;8.696;2022-08-01T01:24:31;98786.22;;;22.00;55.17
22743;BME280;11538;48.884;8.696;2022-08-01T01:30:15;98789.59;;;21.86;56.00
22743;BME280;11538;48.884;8.696;2022-08-01T01:32:49;98789.56;;;21.83;56.09
22743;BME280;11538;48.884;8.696;2022-08-01T01:35:26;98795.06;;;21.83;56.53
22743;BME280;11538;48.884;8.696;2022-08-01T01:38:05;98797.00;;;21.79;56.38
22743;BME280;11538;48.884;8.696;2022-08-01T01:40:35;98796.91;;;21.71;56.99
22743;BME280;11538;48.884;8.696;2022-08-01T01:43:05;98798.72;;;21.60;57.39
22743;BME280;11538;48.884;8.696;2022-08-01T01:45:36;98803.28;;;21.48;58.10
22743;BME280;11538;48.884;8.696;2022-08-01T01:48:06;98800.78;;;21.40;58.14
22743;BME280;11538;48.884;8.696;2022-08-01T01:50:37;98803.41;;;21.29;58.40
22743;BME280;11538;48.884;8.696;2022-08-01T01:53:06;98801.81;;;21.28;58.54
22743;BME280;11538;48.884;8.696;2022-08-01T01:55:43;98804.81;;;21.19;58.87
22743;BME280;11538;48.884;8.696;2022-08-01T01:58:17;98805.06;;;21.10;59.20
22743;BME280;11538;48.884;8.696;2022-08-01T02:00:46;98805.47;;;21.09;59.25
22743;BME280;11538;48.884;8.696;2022-08-01T02:03:18;98801.25;;;21.18;59.18
22743;BME280;11538;48.884;8.696;2022-08-01T02:05:47;98800.22;;;21.27;59.03
22743;BME280;11538;48.884;8.696;2022-08-01T02:08:16;98804.25;;;21.33;58.79
22743;BME280;11538;48.884;8.696;2022-08-01T02:10:45;98800.25;;;21.30;58.69
22743;BME280;11538;48.884;8.696;2022-08-01T02:13:36;98809.78;;;21.33;58.98
22743;BME280;11538;48.884;8.696;2022-08-01T02:16:05;98802.56;;;21.25;59.36
22743;BME280;11538;48.884;8.696;2022-08-01T02:18:33;98807.66;;;21.23;59.25
22743;BME280;11538;48.884;8.696;2022-08-01T02:21:04;98807.25;;;21.24;59.40
22743;BME280;11538;48.884;8.696;2022-08-01T02:23:34;98814.34;;;21.22;59.60
22743;BME280;11538;48.884;8.696;2022-08-01T02:26:10;98808.75;;;21.18;59.56
22743;BME280;11538;48.884;8.696;2022-08-01T02:29:07;98800.59;;;21.25;59.52
22743;BME280;11538;48.884;8.696;2022-08-01T02:31:41;98814.03;;;21.27;59.56
22743;BME280;11538;48.884;8.696;2022-08-01T02:34:17;98813.59;;;21.25;59.80
22743;BME280;11538;48.884;8.696;2022-08-01T02:36:46;98815.94;;;21.23;59.67
22743;BME280;11538;48.884;8.696;2022-08-01T02:39:17;98811.13;;;21.19;60.02
22743;BME280;11538;48.884;8.696;2022-08-01T02:41:49;98819.34;;;21.16;60.23
22743;BME280;11538;48.884;8.696;2022-08-01T02:44:28;98811.13;;;21.19;60.44
22743;BME280;11538;48.884;8.696;2022-08-01T02:47:00;98816.53;;;21.12;60.45
22743;BME280;11538;48.884;8.696;2022-08-01T02:49:37;98814.94;;;21.11;60.70
22743;BME280;11538;48.884;8.696;2022-08-01T02:52:11;98819.28;;;21.12;60.63
22743;BME280;11538;48.884;8.696;2022-08-01T02:54:42;98814.19;;;21.14;60.74
22743;BME280;11538;48.884;8.696;2022-08-01T02:57:12;98812.19;;;21.11;60.82
22743;BME280;11538;48.884;8.696;2022-08-01T02:59:42;98810.97;;;21.09;60.94
22743;BME280;11538;48.884;8.696;2022-08-01T03:02:13;98810.88;;;21.01;61.24
22743;BME280;11538;48.884;8.696;2022-08-01T03:04:42;98812.78;;;20.97;61.34
22743;BME280;11538;48.884;8.696;2022-08-01T03:07:12;98802.84;;;20.93;61.71
22743;BME280;11538;48.884;8.696;2022-08-01T03:09:45;98806.88;;;20.99;61.54
22743;BME280;11538;48.884;8.696;2022-08-01T03:12:16;98812.06;;;21.04;61.39
22743;BME280;11538;48.884;8.696;2022-08-01T03:14:46;98813.66;;;21.05;61.42
22743;BME280;11538;48.884;8.696;2022-08-01T03:17:18;98817.16;;;21.02;61.78
22743;BME280;11538;48.884;8.696;2022-08-01T03:19:48;98817.47;;;20.97;61.99
22743;BME280;11538;48.884;8.696;2022-08-01T03:22:18;98807.91;;;20.91;62.33
22743;BME280;11538;48.884;8.696;2022-08-01T03:24:51;98812.22;;;20.88;62.55
22743;BME280;11538;48.884;8.696;2022-08-01T03:27:23;98813.63;;;21.01;61.93
22743;BME280;11538;48.884;8.696;2022-08-01T03:29:54;98813.66;;;21.05;62.22
22743;BME280;11538;48.884;8.696;2022-08-01T03:32:24;98808.88;;;21.02;62.24
22743;BME280;11538;48.884;8.696;2022-08-01T03:34:52;98809.50;;;20.92;62.69
22743;BME280;11538;48.884;8.696;2022-08-01T03:37:38;98806.72;;;20.88;62.80
22743;BME280;11538;48.884;8.696;2022-08-01T03:40:53;98810.13;;;20.81;63.13
22743;BME280;11538;48.884;8.696;2022-08-01T03:43:31;98820.59;;;20.72;63.68
22743;BME280;11538;48.884;8.696;2022-08-01T03:46:05;98818.31;;;20.54;64.19
22743;BME280;11538;48.884;8.696;2022-08-01T03:48:39;98823.81;;;20.54;64.28
22743;BME280;11538;48.884;8.696;2022-08-01T03:51:08;98823.00;;;20.54;64.58
22743;BME280;11538;48.884;8.696;2022-08-01T03:53:38;98819.03;;;20.51;64.76
22743;BME280;11538;48.884;8.696;2022-08-01T03:56:09;98821.72;;;20.48;64.73
22743;BME280;11538;48.884;8.696;2022-08-01T03:58:39;98813.88;;;20.50;65.01
22743;BME280;11538;48.884;8.696;2022-08-01T04:01:08;98813.63;;;20.55;65.00
22743;BME280;11538;48.884;8.696;2022-08-01T04:03:43;98814.25;;;20.48;64.98
22743;BME280;11538;48.884;8.696;2022-08-01T04:06:10;98812.72;;;20.51;65.44
22743;BME280;11538;48.884;8.696;2022-08-01T04:08:39;98812.59;;;20.43;65.50
22743;BME280;11538;48.884;8.696;2022-08-01T04:11:09;98813.84;;;20.46;65.51
22743;BME280;11538;48.884;8.696;2022-08-01T04:13:36;98819.22;;;20.39;65.90
22743;BME280;11538;48.884;8.696;2022-08-01T04:16:04;98820.16;;;20.27;66.42
22743;BME280;11538;48.884;8.696;2022-08-01T04:18:31;98819.38;;;20.26;66.64
22743;BME280;11538;48.884;8.696;2022-08-01T04:20:59;98806.81;;;20.29;66.95
22743;BME280;11538;48.884;8.696;2022-08-01T04:23:30;98816.09;;;20.21;67.12
22743;BME280;11538;48.884;8.696;2022-08-01T04:26:01;98814.91;;;20.18;67.16
22743;BME280;11538;48.884;8.696;2022-08-01T04:28:34;98815.09;;;20.29;67.06
22743;BME280;11538;48.884;8.696;2022-08-01T04:31:06;98822.69;;;20.36;66.94
22743;BME280;11538;48.884;8.696;2022-08-01T04:33:42;98832.91;;;20.35;66.94
22743;BME280;11538;48.884;8.696;2022-08-01T04:36:11;98835.09;;;20.26;67.35
22743;BME280;11538;48.884;8.696;2022-08-01T04:38:40;98830.81;;;20.28;67.57
22743;BME280;11538;48.884;8.696;2022-08-01T04:41:12;98837.50;;;20.27;67.54
22743;BME280;11538;48.884;8.696;2022-08-01T04:43:39;98834.38;;;20.29;67.26
22743;BME280;11538;48.884;8.696;2022-08-01T04:46:11;98828.50;;;20.30;67.56
22743;BME280;11538;48.884;8.696;2022-08-01T04:48:39;98826.47;;;20.27;67.28
22743;BME280;11538;48.884;8.696;2022-08-01T04:51:14;98820.84;;;20.20;67.94
22743;BME280;11538;48.884;8.696;2022-08-01T04:53:45;98828.34;;;20.43;67.09
22743;BME280;11538;48.884;8.696;2022-08-01T04:56:15;98831.34;;;20.57;66.57
22743;BME280;11538;48.884;8.696;2022-08-01T04:58:42;98822.47;;;20.68;66.07
22743;BME280;11538;48.884;8.696;2022-08-01T05:01:10;98828.53;;;20.77;65.75
22743;BME280;11538;48.884;8.696;2022-08-01T05:03:37;98827.47;;;20.82;65.86
22743;BME280;11538;48.884;8.696;2022-08-01T05:06:05;98829.81;;;20.80;66.17
22743;BME280;11538;48.884;8.696;2022-08-01T05:08:32;98829.72;;;20.76;66.43
22743;BME280;11538;48.884;8.696;2022-08-01T05:10:59;98825.31;;;20.71;66.48
22743;BME280;11538;48.884;8.696;2022-08-01T05:13:28;98833.63;;;20.75;66.32
22743;BME280;11538;48.884;8.696;2022-08-01T05:15:55;98834.50;;;20.79;66.54
22743;BME280;11538;48.884;8.696;2022-08-01T05:18:22;98830.44;;;20.73;66.32
22743;BME280;11538;48.884;8.696;2022-08-01T05:20:54;98832.91;;;20.78;66.32
22743;BME280;11538;48.884;8.696;2022-08-01T05:23:21;98827.22;;;20.91;65.83
22743;BME280;11538;48.884;8.696;2022-08-01T05:26:10;98836.84;;;21.00;65.80
22743;BME280;11538;48.884;8.696;2022-08-01T05:28:41;98833.69;;;21.02;65.57
22743;BME280;11538;48.884;8.696;2022-08-01T05:31:08;98836.34;;;20.95;66.23
22743;BME280;11538;48.884;8.696;2022-08-01T05:33:35;98830.38;;;20.89;66.61
22743;BME280;11538;48.884;8.696;2022-08-01T05:36:02;98828.22;;;20.79;66.82
22743;BME280;11538;48.884;8.696;2022-08-01T05:38:30;98826.00;;;20.88;66.57
22743;BME280;11538;48.884;8.696;2022-08-01T05:40:57;98831.25;;;20.97;66.27
22743;BME280;11538;48.884;8.696;2022-08-01T05:43:24;98832.53;;;21.03;66.13
22743;BME280;11538;48.884;8.696;2022-08-01T05:45:55;98833.28;;;21.00;66.38
22743;BME280;11538;48.884;8.696;2022-08-01T05:48:23;98836.56;;;21.09;66.09
22743;BME280;11538;48.884;8.696;2022-08-01T05:50:51;98832.66;;;21.10;66.10
22743;BME280;11538;48.884;8.696;2022-08-01T05:53:24;98832.41;;;21.19;66.12
22743;BME280;11538;48.884;8.696;2022-08-01T05:55:51;98833.50;;;21.14;66.30
22743;BME280;11538;48.884;8.696;2022-08-01T05:58:18;98834.91;;;21.28;66.25
22743;BME280;11538;48.884;8.696;2022-08-01T06:00:45;98831.63;;;21.45;65.74
22743;BME280;11538;48.884;8.696;2022-08-01T06:03:11;98834.84;;;21.51;65.53
22743;BME280;11538;48.884;8.696;2022-08-01T06:05:38;98834.84;;;21.51;65.45
22743;BME280;11538;48.884;8.696;2022-08-01T06:08:05;98837.28;;;21.56;65.07
22743;BME280;11538;48.884;8.696;2022-08-01T06:10:32;98847.03;;;21.73;64.76
22743;BME280;11538;48.884;8.696;2022-08-01T06:12:59;98840.94;;;21.91;64.27
22743;BME280;11538;48.884;8.696;2022-08-01T06:15:31;98842.34;;;22.08;63.85
22743;BME280;11538;48.884;8.696;2022-08-01T06:17:59;98841.34;;;22.24;63.45
22743;BME280;11538;48.884;8.696;2022-08-01T06:20:26;98844.50;;;22.26;63.02
22743;BME280;11538;48.884;8.696;2022-08-01T06:22:53;98843.78;;;22.32;62.70
22743;BME280;11538;48.884;8.696;2022-08-01T06:25:22;98849.81;;;22.42;62.71
22743;BME280;11538;48.884;8.696;2022-08-01T06:27:49;98853.09;;;22.51;62.19
22743;BME280;11538;48.884;8.696;2022-08-01T06:30:16;98847.25;;;22.56;62.70
22743;BME280;11538;48.884;8.696;2022-08-01T06:32:43;98841.78;;;22.63;62.60
22743;BME280;11538;48.884;8.696;2022-08-01T06:35:10;98836.69;;;22.69;62.51
22743;BME280;11538;48.884;8.696;2022-08-01T06:37:37;98843.94;;;22.81;62.52
22743;BME280;11538;48.884;8.696;2022-08-01T06:40:08;98838.94;;;22.98;61.89
22743;BME280;11538;48.884;8.696;2022-08-01T06:42:42;98844.53;;;23.08;61.31
22743;BME280;11538;48.884;8.696;2022-08-01T06:45:10;98846.53;;;23.12;61.34
22743;BME280;11538;48.884;8.696;2022-08-01T06:47:39;98847.75;;;23.14;60.88
22743;BME280;11538;48.884;8.696;2022-08-01T06:50:08;98854.91;;;23.22;60.73
22743;BME280;11538;48.884;8.696;2022-08-01T06:52:38;98857.00;;;23.33;60.31
22743;BME280;11538;48.884;8.696;2022-08-01T06:55:06;98857.09;;;23.47;60.04
22743;BME280;11538;48.884;8.696;2022-08-01T06:57:33;98857.56;;;23.57;59.65
22743;BME280;11538;48.884;8.696;2022-08-01T07:00:06;98866.31;;;23.66;59.33
22743;BME280;11538;48.884;8.696;2022-08-01T07:02:38;98860.38;;;23.64;59.47
22743;BME280;11538;48.884;8.696;2022-08-01T07:05:05;98863.13;;;23.64;59.58
22743;BME280;11538;48.884;8.696;2022-08-01T07:07:32;98864.75;;;23.72;59.04
22743;BME280;11538;48.884;8.696;2022-08-01T07:09:59;98862.03;;;23.76;59.08
22743;BME280;11538;48.884;8.696;2022-08-01T07:12:26;98852.91;;;23.72;58.85
22743;BME280;11538;48.884;8.696;2022-08-01T07:14:53;98855.25;;;23.70;59.07
22743;BME280;11538;48.884;8.696;2022-08-01T07:17:20;98852.50;;;23.70;59.03
22743;BME280;11538;48.884;8.696;2022-08-01T07:19:48;98858.44;;;23.72;59.31
22743;BME280;11538;48.884;8.696;2022-08-01T07:22:15;98849.75;;;23.77;58.83
22743;BME280;11538;48.884;8.696;2022-08-01T07:24:49;98856.19;;;23.92;58.83
22743;BME280;11538;48.884;8.696;2022-08-01T07:27:20;98854.69;;;24.05;57.98
22743;BME280;11538;48.884;8.696;2022-08-01T07:29:52;98857.50;;;24.23;57.73
22743;BME280;11538;48.884;8.696;2022-08-01T07:32:19;98857.16;;;24.39;57.13
22743;BME280;11538;48.884;8.696;2022-08-01T07:34:46;98854.75;;;24.31;57.45
22743;BME280;11538;48.884;8.696;2022-08-01T07:37:13;98858.72;;;24.30;57.39
22743;BME280;11538;48.884;8.696;2022-08-01T07:39:40;98851.63;;;24.39;57.53
22743;BME280;11538;48.884;8.696;2022-08-01T07:42:07;98853.66;;;24.57;56.62
22743;BME280;11538;48.884;8.696;2022-08-01T07:44:36;98856.47;;;24.79;56.15
22743;BME280;11538;48.884;8.696;2022-08-01T07:47:04;98850.16;;;24.93;55.49
22743;BME280;11538;48.884;8.696;2022-08-01T07:49:32;98850.53;;;24.99;55.34
22743;BME280;11538;48.884;8.696;2022-08-01T07:52:05;98858.09;;;24.98;55.49
22743;BME280;11538;48.884;8.696;2022-08-01T07:54:33;98847.75;;;24.91;55.50
22743;BME280;11538;48.884;8.696;2022-08-01T07:57:02;98844.59;;;24.86;55.05
22743;BME280;11538;48.884;8.696;2022-08-01T07:59:29;98840.66;;;24.87;55.41
22743;BME280;11538;48.884;8.696;2022-08-01T08:01:57;98841.03;;;24.89;55.48
22743;BME280;11538;48.884;8.696;2022-08-01T08:04:25;98853.72;;;24.82;56.05
22743;BME280;11538;48.884;8.696;2022-08-01T08:06:52;98843.00;;;24.74;56.04
22743;BME280;11538;48.884;8.696;2022-08-01T08:09:20;98850.91;;;24.72;56.13
22743;BME280;11538;48.884;8.696;2022-08-01T08:11:47;98853.31;;;24.91;55.67
22743;BME280;11538;48.884;8.696;2022-08-01T08:14:18;98841.44;;;25.02;55.17
22743;BME280;11538;48.884;8.696;2022-08-01T08:16:45;98845.81;;;24.99;54.33
22743;BME280;11538;48.884;8.696;2022-08-01T08:19:12;98847.78;;;24.95;55.83
22743;BME280;11538;48.884;8.696;2022-08-01T08:21:40;98840.22;;;25.10;54.77
22743;BME280;11538;48.884;8.696;2022-08-01T08:24:09;98841.03;;;25.21;55.19
22743;BME280;11538;48.884;8.696;2022-08-01T08:27:00;98840.19;;;25.64;54.09
22743;BME280;11538;48.884;8.696;2022-08-01T08:29:30;98838.84;;;26.05;52.97
22743;BME280;11538;48.884;8.696;2022-08-01T08:32:00;98841.16;;;26.28;51.84
22743;BME280;11538;48.884;8.696;2022-08-01T08:34:28;98846.81;;;26.07;52.65
22743;BME280;11538;48.884;8.696;2022-08-01T08:36:56;98836.16;;;25.91;53.15
22743;BME280;11538;48.884;8.696;2022-08-01T08:39:25;98839.28;;;26.04;52.33
22743;BME280;11538;48.884;8.696;2022-08-01T08:41:53;98826.50;;;26.13;52.50
22743;BME280;11538;48.884;8.696;2022-08-01T08:44:23;98840.31;;;26.39;51.93
22743;BME280;11538;48.884;8.696;2022-08-01T08:46:57;98838.28;;;26.47;51.88
22743;BME280;11538;48.884;8.696;2022-08-01T08:49:28;98843.50;;;26.37;51.12
22743;BME280;11538;48.884;8.696;2022-08-01T08:52:04;98834.81;;;26.28;51.78
22743;BME280;11538;48.884;8.696;2022-08-01T08:54:35;98838.69;;;26.45;51.43
22743;BME280;11538;48.884;8.696;2022-08-01T08:57:04;98835.38;;;26.68;51.18
22743;BME280;11538;48.884;8.696;2022-08-01T08:59:31;98840.75;;;26.97;50.44
22743;BME280;11538;48.884;8.696;2022-08-01T09:02:11;98843.34;;;27.15;49.93
22743;BME280;11538;48.884;8.696;2022-08-01T09:04:52;98840.00;;;26.90;49.49
22743;BME280;11538;48.884;8.696;2022-08-01T09:07:20;98839.56;;;26.95;49.67
22743;BME280;11538;48.884;8.696;2022-08-01T09:09:47;98843.56;;;27.39;48.95
22743;BME280;11538;48.884;8.696;2022-08-01T09:12:18;98839.38;;;27.97;47.81
22743;BME280;11538;48.884;8.696;2022-08-01T09:14:48;98838.75;;;28.16;46.62
22743;BME280;11538;48.884;8.696;2022-08-01T09:17:17;98846.75;;;27.76;47.45
22743;BME280;11538;48.884;8.696;2022-08-01T09:19:49;98841.94;;;27.42;48.03
22743;BME280;11538;48.884;8.696;2022-08-01T09:22:24;98853.88;;;27.84;47.74
22743;BME280;11538;48.884;8.696;2022-08-01T09:25:07;98848.44;;;27.70;47.68
22743;BME280;11538;48.884;8.696;2022-08-01T09:27:38;98845.66;;;27.28;48.56
22743;BME280;11538;48.884;8.696;2022-08-01T09:30:18;98850.25;;;27.04;49.73
22743;BME280;11538;48.884;8.696;2022-08-01T09:32:57;98856.63;;;26.97;49.46
22743;BME280;11538;48.884;8.696;2022-08-01T09:35:29;98852.88;;;27.22;48.91
22743;BME280;11538;48.884;8.696;2022-08-01T09:38:20;98857.47;;;27.81;48.13
22743;BME280;11538;48.884;8.696;2022-08-01T09:40:59;98855.13;;;28.14;47.10
22743;BME280;11538;48.884;8.696;2022-08-01T09:43:30;98859.84;;;28.49;45.73
22743;BME280;11538;48.884;8.696;2022-08-01T09:46:00;98853.81;;;28.81;45.24
22743;BME280;11538;48.884;8.696;2022-08-01T09:48:31;98843.94;;;29.00;45.33
22743;BME280;11538;48.884;8.696;2022-08-01T09:50:59;98850.38;;;28.70;45.91
22743;BME280;11538;48.884;8.696;2022-08-01T09:54:07;98846.47;;;28.36;46.11
22743;BME280;11538;48.884;8.696;2022-08-01T09:56:42;98843.31;;;27.99;46.82
22743;BME280;11538;48.884;8.696;2022-08-01T09:59:10;98843.69;;;28.36;46.50
22743;BME280;11538;48.884;8.696;2022-08-01T10:01:49;98846.97;;;29.10;45.11
22743;BME280;11538;48.884;8.696;2022-08-01T10:04:20;98854.50;;;29.37;43.55
22743;BME280;11538;48.884;8.696;2022-08-01T10:06:50;98859.69;;;28.87;44.44
22743;BME280;11538;48.884;8.696;2022-08-01T10:09:29;98849.94;;;28.44;45.37
22743;BME280;11538;48.884;8.696;2022-08-01T10:12:13;98842.75;;;28.12;46.24
22743;BME280;11538;48.884;8.696;2022-08-01T10:14:45;98843.53;;;28.16;46.05
22743;BME280;11538;48.884;8.696;2022-08-01T10:17:19;98844.78;;;28.42;46.04
22743;BME280;11538;48.884;8.696;2022-08-01T10:19:48;98844.72;;;28.19;46.37
22743;BME280;11538;48.884;8.696;2022-08-01T10:22:20;98833.09;;;27.89;47.02
22743;BME280;11538;48.884;8.696;2022-08-01T10:24:54;98834.47;;;28.39;46.86
22743;BME280;11538;48.884;8.696;2022-08-01T10:27:23;98835.50;;;29.28;44.64
22743;BME280;11538;48.884;8.696;2022-08-01T10:30:06;98814.63;;;29.97;43.31
22743;BME280;11538;48.884;8.696;2022-08-01T10:32:56;98828.25;;;29.54;43.58
22743;BME280;11538;48.884;8.696;2022-08-01T10:35:22;98834.16;;;29.12;44.05
22743;BME280;11538;48.884;8.696;2022-08-01T10:38:10;98834.59;;;29.35;44.98
22743;BME280;11538;48.884;8.696;2022-08-01T10:40:41;98819.25;;;29.67;43.93
22743;BME280;11538;48.884;8.696;2022-08-01T10:43:13;98817.16;;;30.11;43.00
22743;BME280;11538;48.884;8.696;2022-08-01T10:45:49;98823.94;;;30.67;42.43
22743;BME280;11538;48.884;8.696;2022-08-01T10:48:47;98826.00;;;31.13;39.75
22743;BME280;11538;48.884;8.696;2022-08-01T10:51:19;98810.44;;;31.28;39.23
22743;BME280;11538;48.884;8.696;2022-08-01T10:54:11;98814.69;;;31.49;38.05
22743;BME280;11538;48.884;8.696;2022-08-01T10:56:51;98812.50;;;31.41;38.86
22743;BME280;11538;48.884;8.696;2022-08-01T10:59:26;98811.88;;;31.49;38.78
22743;BME280;11538;48.884;8.696;2022-08-01T11:03:03;98807.13;;;30.84;40.27
22743;BME280;11538;48.884;8.696;2022-08-01T11:05:34;98807.16;;;30.47;39.41
22743;BME280;11538;48.884;8.696;2022-08-01T11:08:37;98809.03;;;29.97;39.97
22743;BME280;11538;48.884;8.696;2022-08-01T11:11:07;98800.59;;;29.60;42.08
22743;BME280;11538;48.884;8.696;2022-08-01T11:14:04;98808.13;;;29.43;43.32
22743;BME280;11538;48.884;8.696;2022-08-01T11:16:40;98807.75;;;29.41;43.55
22743;BME280;11538;48.884;8.696;2022-08-01T11:19:08;98820.94;;;29.16;43.83
22743;BME280;11538;48.884;8.696;2022-08-01T11:27:28;98795.38;;;31.22;39.79
22743;BME280;11538;48.884;8.696;2022-08-01T11:32:52;98791.38;;;31.95;37.85
22743;BME280;11538;48.884;8.696;2022-08-01T11:35:38;98788.22;;;31.50;39.06
22743;BME280;11538;48.884;8.696;2022-08-01T11:38:28;98786.66;;;31.49;38.11
22743;BME280;11538;48.884;8.696;2022-08-01T11:41:16;98781.19;;;32.66;36.37
22743;BME280;11538;48.884;8.696;2022-08-01T11:44:07;98779.84;;;32.58;35.86
22743;BME280;11538;48.884;8.696;2022-08-01T11:47:06;98774.13;;;31.97;37.15
22743;BME280;11538;48.884;8.696;2022-08-01T11:49:49;98781.53;;;32.68;35.47
22743;BME280;11538;48.884;8.696;2022-08-01T11:52:28;98770.34;;;33.38;34.73
22743;BME280;11538;48.884;8.696;2022-08-01T11:57:37;98778.34;;;33.62;33.43
22743;BME280;11538;48.884;8.696;2022-08-01T12:00:18;98763.25;;;34.41;32.93
22743;BME280;11538;48.884;8.696;2022-08-01T12:03:07;98767.97;;;35.13;32.22
22743;BME280;11538;48.884;8.696;2022-08-01T12:05:35;98758.41;;;35.39;31.72
22743;BME280;11538;48.884;8.696;2022-08-01T12:08:09;98762.94;;;35.55;31.39
22743;BME280;11538;48.884;8.696;2022-08-01T12:10:37;98761.50;;;35.78;31.18
22743;BME280;11538;48.884;8.696;2022-08-01T12:13:16;98747.03;;;35.95;30.10
22743;BME280;11538;48.884;8.696;2022-08-01T12:15:45;98748.94;;;34.17;32.20
22743;BME280;11538;48.884;8.696;2022-08-01T12:18:22;98757.69;;;34.51;32.36
22743;BME280;11538;48.884;8.696;2022-08-01T12:21:02;98758.84;;;34.91;31.69
22743;BME280;11538;48.884;8.696;2022-08-01T12:23:39;98756.53;;;34.98;34.21
22743;BME280;11538;48.884;8.696;2022-08-01T12:26:09;98752.63;;;35.24;32.12
22743;BME280;11538;48.884;8.696;2022-08-01T12:28:58;98747.69;;;33.87;32.74
22743;BME280;11538;48.884;8.696;2022-08-01T12:31:33;98748.63;;;32.69;34.78
22743;BME280;11538;48.884;8.696;2022-08-01T12:34:29;98749.97;;;31.86;36.22
22743;BME280;11538;48.884;8.696;2022-08-01T12:37:00;98736.41;;;31.98;36.22
22743;BME280;11538;48.884;8.696;2022-08-01T12:39:32;98753.41;;;33.51;33.55
22743;BME280;11538;48.884;8.696;2022-08-01T12:42:01;98735.41;;;34.34;31.17
22743;BME280;11538;48.884;8.696;2022-08-01T12:44:32;98751.47;;;34.84;30.28
22743;BME280;11538;48.884;8.696;2022-08-01T12:47:01;98760.59;;;35.44;29.22
22743;BME280;11538;48.884;8.696;2022-08-01T12:49:35;98741.81;;;36.12;28.24
22743;BME280;11538;48.884;8.696;2022-08-01T12:52:05;98745.88;;;36.54;27.57
22743;BME280;11538;48.884;8.696;2022-08-01T12:57:43;98740.06;;;36.14;28.47
22743;BME280;11538;48.884;8.696;2022-08-01T13:00:19;98731.59;;;36.14;28.78
22743;BME280;11538;48.884;8.696;2022-08-01T13:03:08;98738.56;;;35.95;29.36
22743;BME280;11538;48.884;8.696;2022-08-01T13:05:57;98747.84;;;35.86;29.40
22743;BME280;11538;48.884;8.696;2022-08-01T13:08:31;98741.88;;;34.03;32.02
22743;BME280;11538;48.884;8.696;2022-08-01T13:11:02;98743.63;;;32.99;33.51
22743;BME280;11538;48.884;8.696;2022-08-01T13:16:16;98734.94;;;32.45;34.61
22743;BME280;11538;48.884;8.696;2022-08-01T13:19:07;98739.13;;;32.14;35.13
22743;BME280;11538;48.884;8.696;2022-08-01T13:21:37;98741.81;;;32.31;35.11
22743;BME280;11538;48.884;8.696;2022-08-01T13:24:28;98736.56;;;32.94;33.66
22743;BME280;11538;48.884;8.696;2022-08-01T13:27:04;98732.22;;;33.37;32.99
22743;BME280;11538;48.884;8.696;2022-08-01T13:29:39;98738.06;;;33.65;33.25
22743;BME280;11538;48.884;8.696;2022-08-01T13:32:21;98736.03;;;33.08;33.13
22743;BME280;11538;48.884;8.696;2022-08-01T13:35:09;98734.97;;;33.28;32.99
22743;BME280;11538;48.884;8.696;2022-08-01T13:37:41;98734.53;;;33.52;32.22
22743;BME280;11538;48.884;8.696;2022-08-01T13:40:25;98730.44;;;33.08;32.91
22743;BME280;11538;48.884;8.696;2022-08-01T13:42:56;98728.84;;;32.72;33.43
22743;BME280;11538;48.884;8.696;2022-08-01T13:45:23;98740.69;;;34.23;31.47
22743;BME280;11538;48.884;8.696;2022-08-01T13:47:52;98732.69;;;34.62;30.44
22743;BME280;11538;48.884;8.696;2022-08-01T13:50:38;98735.88;;;34.42;30.87
22743;BME280;11538;48.884;8.696;2022-08-01T13:53:05;98736.34;;;35.00;30.22